Time;durP1;ratioP1;P1;durP2;ratioP2;P2;SDS_P1;SDS_P2;PMS_P1;PMS_P2;Temp;Humidity;BMP_temperature;BMP_pressure;BME280_temperature;BME280_humidity;BME280_pressure;Samples;Min_cycle;Max_cycle;Signal;HPM_P1;HPM_P2
2023/10/04 00:00:14;;;;;;;5.35;2.58;;;12.50;77.80;;;;;;5054421;28;20692;-89
2023/10/04 00:03:07;;;;;;;5.68;2.72;;;12.50;77.70;;;;;;5055171;28;20017;-89
2023/10/04 00:05:34;;;;;;;4.68;2.80;;;12.50;77.70;;;;;;5050267;28;20033;-88
2023/10/04 00:07:59;;;;;;;4.32;2.90;;;12.50;77.80;;;;;;5054432;28;20047;-89
2023/10/04 00:10:25;;;;;;;4.30;2.55;;;12.60;77.60;;;;;;5053901;28;20489;-86
2023/10/04 00:12:52;;;;;;;4.15;2.65;;;12.60;77.10;;;;;;5053693;28;20032;-86
2023/10/04 00:15:21;;;;;;;4.00;2.13;;;12.70;77.10;;;;;;5054058;28;20131;-85
2023/10/04 00:17:47;;;;;;;5.18;2.67;;;12.60;77.10;;;;;;5053580;28;20583;-85
2023/10/04 00:20:16;;;;;;;5.47;2.70;;;12.50;77.00;;;;;;5053873;28;20020;-87
2023/10/04 00:22:43;;;;;;;4.95;2.80;;;12.50;77.00;;;;;;5053686;28;20027;-86
2023/10/04 00:25:16;;;;;;;4.88;2.20;;;12.40;77.40;;;;;;5053651;28;20108;-86
2023/10/04 00:27:43;;;;;;;4.30;2.53;;;12.30;77.80;;;;;;5053601;28;20473;-84
2023/10/04 00:30:14;;;;;;;4.63;2.45;;;12.40;78.00;;;;;;5053378;28;20439;-85
2023/10/04 00:32:40;;;;;;;4.43;2.45;;;12.40;77.90;;;;;;5055292;28;20469;-86
2023/10/04 00:35:09;;;;;;;5.68;2.88;;;12.40;77.60;;;;;;5057238;28;20040;-88
2023/10/04 00:37:35;;;;;;;6.68;2.70;;;12.40;77.50;;;;;;5057199;28;20032;-87
2023/10/04 00:40:09;;;;;;;4.30;2.50;;;12.40;78.00;;;;;;5056375;28;20312;-85
2023/10/04 00:42:35;;;;;;;5.82;2.75;;;12.30;77.70;;;;;;5059213;28;20127;-88
2023/10/04 00:45:01;;;;;;;5.57;2.33;;;12.30;77.60;;;;;;5041065;28;20526;-88
2023/10/04 00:47:26;;;;;;;5.72;2.53;;;12.30;77.40;;;;;;5058448;28;20091;-88
2023/10/04 00:49:52;;;;;;;5.28;2.88;;;12.20;77.60;;;;;;5058701;28;20075;-89
2023/10/04 00:52:19;;;;;;;6.30;2.63;;;12.10;77.80;;;;;;5058155;28;20188;-87
2023/10/04 00:54:44;;;;;;;5.60;2.60;;;12.10;77.90;;;;;;5040880;28;20032;-87
2023/10/04 00:57:10;;;;;;;4.38;2.55;;;12.20;78.00;;;;;;5059002;28;20056;-87
2023/10/04 00:59:36;;;;;;;6.20;2.58;;;12.20;77.80;;;;;;5058580;28;20024;-88
2023/10/04 01:02:02;;;;;;;5.60;3.00;;;12.20;77.80;;;;;;5059452;28;20029;-87
2023/10/04 01:04:28;;;;;;;4.10;2.83;;;12.20;77.80;;;;;;5049054;28;20032;-83
2023/10/04 01:06:54;;;;;;;5.00;2.60;;;12.10;78.10;;;;;;5072507;28;20025;-85
2023/10/04 01:09:23;;;;;;;6.65;3.33;;;12.00;78.20;;;;;;5068181;28;20040;-86
2023/10/04 01:11:48;;;;;;;7.25;2.90;;;11.90;78.50;;;;;;5065534;28;20021;-84
2023/10/04 01:14:25;;;;;;;3.83;2.67;;;11.90;78.80;;;;;;5056668;28;20104;-86
2023/10/04 01:16:54;;;;;;;5.43;2.90;;;11.80;78.90;;;;;;5057907;28;20365;-86
2023/10/04 01:19:22;;;;;;;4.18;2.78;;;11.70;79.20;;;;;;5071750;28;20021;-86
2023/10/04 01:21:51;;;;;;;10.45;6.03;;;11.60;79.50;;;;;;5069421;28;20048;-77
2023/10/04 01:24:17;;;;;;;9.23;4.20;;;11.60;79.80;;;;;;5071153;28;20021;-85
2023/10/04 01:26:43;;;;;;;4.05;2.60;;;11.60;79.80;;;;;;5073738;28;20017;-86
2023/10/04 01:29:11;;;;;;;4.40;2.83;;;11.50;80.00;;;;;;5064097;28;20037;-86
2023/10/04 01:31:40;;;;;;;6.32;3.17;;;11.40;80.30;;;;;;5057298;28;20021;-86
2023/10/04 01:34:13;;;;;;;5.13;2.80;;;11.40;80.40;;;;;;5038886;28;20031;-85
2023/10/04 01:36:38;;;;;;;5.22;2.88;;;11.40;80.30;;;;;;5056584;28;20029;-85
2023/10/04 01:39:07;;;;;;;4.25;3.15;;;11.40;80.50;;;;;;5057138;28;20025;-86
2023/10/04 01:41:37;;;;;;;5.80;2.88;;;11.40;81.20;;;;;;5056483;28;20072;-86
2023/10/04 01:44:04;;;;;;;5.57;2.80;;;11.40;80.30;;;;;;5038788;28;20033;-85
2023/10/04 01:46:29;;;;;;;5.22;2.70;;;11.40;80.40;;;;;;5056562;28;20086;-85
2023/10/04 01:48:56;;;;;;;5.85;2.85;;;11.50;80.40;;;;;;5055851;28;20029;-86
2023/10/04 01:51:22;;;;;;;4.97;2.90;;;11.40;80.20;;;;;;5039348;28;20020;-86
2023/10/04 01:53:47;;;;;;;5.55;3.03;;;11.50;80.30;;;;;;5070181;28;20043;-73
2023/10/04 01:56:13;;;;;;;4.60;2.90;;;11.50;80.30;;;;;;5079013;28;20027;-76
2023/10/04 01:58:38;;;;;;;5.15;2.92;;;11.40;80.40;;;;;;5077375;28;20017;-85
2023/10/04 02:01:05;;;;;;;4.70;2.83;;;11.40;80.30;;;;;;5055814;28;20025;-75
2023/10/04 02:03:31;;;;;;;6.25;3.28;;;11.40;80.20;;;;;;5037522;28;20036;-86
2023/10/04 02:05:58;;;;;;;5.85;2.85;;;11.50;79.80;;;;;;5056070;28;20100;-85
2023/10/04 02:08:24;;;;;;;5.18;2.80;;;11.50;79.60;;;;;;5055619;28;20029;-85
2023/10/04 02:10:52;;;;;;;4.63;3.08;;;11.50;79.60;;;;;;5055566;28;20048;-86
2023/10/04 02:13:19;;;;;;;4.28;2.67;;;11.40;79.40;;;;;;5055966;28;20013;-87
2023/10/04 02:15:50;;;;;;;3.13;2.25;;;11.40;79.60;;;;;;5055753;28;20385;-85
2023/10/04 02:18:18;;;;;;;5.43;2.92;;;11.40;79.90;;;;;;5055999;28;20021;-82
2023/10/04 02:20:46;;;;;;;7.10;3.00;;;11.30;79.80;;;;;;5055595;28;20017;-79
2023/10/04 02:23:12;;;;;;;5.45;3.13;;;11.30;79.60;;;;;;5055843;28;20024;-76
2023/10/04 02:25:39;;;;;;;6.32;2.83;;;11.20;80.10;;;;;;5055764;28;20033;-78
2023/10/04 02:28:11;;;;;;;4.60;2.85;;;11.10;80.20;;;;;;5055706;28;20159;-86
2023/10/04 02:30:37;;;;;;;4.57;2.88;;;11.10;80.40;;;;;;5055447;28;20033;-79
2023/10/04 02:33:08;;;;;;;5.50;3.00;;;11.10;80.50;;;;;;5055101;28;20036;-77
2023/10/04 02:35:39;;;;;;;7.63;2.80;;;11.00;80.40;;;;;;5054764;28;20116;-81
2023/10/04 02:38:16;;;;;;;7.35;3.22;;;11.00;80.40;;;;;;5054549;28;20032;-83
2023/10/04 02:40:43;;;;;;;4.05;2.50;;;10.90;80.90;;;;;;5055122;28;20017;-82
2023/10/04 02:43:09;;;;;;;4.63;3.00;;;10.90;81.00;;;;;;5054540;28;20473;-78
2023/10/04 02:45:36;;;;;;;6.00;2.90;;;10.90;81.00;;;;;;5054548;28;20074;-80
2023/10/04 02:48:09;;;;;;;5.85;2.83;;;10.90;81.10;;;;;;5054680;28;20114;-77
2023/10/04 02:50:34;;;;;;;7.32;3.30;;;11.00;80.80;;;;;;5054031;28;20547;-80
2023/10/04 02:53:00;;;;;;;5.72;2.85;;;11.00;80.60;;;;;;5053800;28;20108;-83
2023/10/04 02:55:25;;;;;;;5.00;3.13;;;11.00;80.40;;;;;;5054379;28;20040;-81
2023/10/04 02:57:52;;;;;;;5.15;2.95;;;11.00;80.20;;;;;;5053773;28;20478;-79
2023/10/04 03:00:19;;;;;;;4.93;3.00;;;10.90;80.50;;;;;;5054373;28;20063;-82
2023/10/04 03:02:48;;;;;;;4.38;3.10;;;10.80;80.80;;;;;;5054060;28;20029;-84
2023/10/04 03:05:20;;;;;;;4.78;2.22;;;10.80;80.80;;;;;;5053642;28;20024;-84
2023/10/04 03:07:47;;;;;;;6.85;2.65;;;10.80;80.90;;;;;;5054615;28;20028;-80
2023/10/04 03:10:14;;;;;;;5.25;2.72;;;10.90;81.00;;;;;;5054441;28;20044;-86
2023/10/04 03:12:45;;;;;;;6.85;4.13;;;10.90;80.80;;;;;;5054816;28;20017;-81
2023/10/04 03:15:10;;;;;;;6.50;2.85;;;11.00;80.30;;;;;;5055452;28;20373;-84
2023/10/04 03:17:36;;;;;;;4.95;3.05;;;11.10;79.90;;;;;;5054065;28;20074;-84
2023/10/04 03:20:04;;;;;;;4.90;3.13;;;11.20;79.50;;;;;;5053433;28;20538;-71
2023/10/04 03:22:29;;;;;;;8.98;2.90;;;11.20;79.20;;;;;;5053682;28;20044;-75
2023/10/04 03:24:55;;;;;;;6.40;2.88;;;11.20;78.90;;;;;;5053971;28;20061;-71
2023/10/04 03:27:24;;;;;;;3.63;2.42;;;11.20;79.20;;;;;;5053536;28;20389;-72
2023/10/04 03:29:51;;;;;;;4.65;2.42;;;11.20;79.20;;;;;;5035237;28;20044;-75
2023/10/04 03:32:18;;;;;;;4.90;2.95;;;11.30;79.00;;;;;;5054792;28;20029;-72
2023/10/04 03:34:44;;;;;;;4.70;2.70;;;11.30;78.90;;;;;;5053649;28;20021;-76
2023/10/04 03:37:13;;;;;;;5.20;2.70;;;11.40;78.90;;;;;;5053497;28;20043;-72
2023/10/04 03:39:39;;;;;;;3.85;2.67;;;11.40;79.00;;;;;;5035633;28;20385;-76
2023/10/04 03:42:05;;;;;;;5.47;2.60;;;11.40;79.10;;;;;;5054312;28;20037;-71
2023/10/04 03:44:31;;;;;;;4.25;2.70;;;11.40;80.00;;;;;;5057182;28;20380;-71
2023/10/04 03:46:57;;;;;;;3.20;2.47;;;11.50;79.00;;;;;;5057000;28;20087;-71
2023/10/04 03:49:24;;;;;;;5.70;2.80;;;11.50;78.60;;;;;;5053104;28;20055;-72
2023/10/04 03:51:52;;;;;;;3.65;2.25;;;11.40;78.50;;;;;;5053640;28;20060;-72
2023/10/04 03:54:19;;;;;;;5.97;2.60;;;11.40;78.90;;;;;;5052889;28;20480;-72
2023/10/04 03:56:44;;;;;;;4.53;2.90;;;11.50;78.90;;;;;;5055862;28;20029;-81
2023/10/04 03:59:10;;;;;;;6.72;2.60;;;11.50;78.80;;;;;;5058436;28;20082;-86
2023/10/04 04:01:37;;;;;;;6.47;3.10;;;11.50;78.80;;;;;;5060621;28;20021;-84
2023/10/04 04:04:14;;;;;;;4.95;2.47;;;11.40;79.00;;;;;;5062872;28;20025;-79
2023/10/04 04:06:39;;;;;;;4.72;2.90;;;11.40;79.20;;;;;;5063569;28;20020;-81
2023/10/04 04:09:08;;;;;;;4.75;2.92;;;11.30;79.40;;;;;;5044195;28;20096;-80
2023/10/04 04:11:35;;;;;;;6.55;2.65;;;11.20;79.80;;;;;;5063962;28;20029;-73
2023/10/04 04:14:00;;;;;;;3.13;2.47;;;11.20;79.90;;;;;;5061530;28;20024;-78
2023/10/04 04:16:26;;;;;;;6.18;3.00;;;11.30;79.90;;;;;;5060360;28;20029;-80
2023/10/04 04:18:54;;;;;;;4.70;2.75;;;11.20;79.80;;;;;;5063396;28;20040;-80
2023/10/04 04:21:20;;;;;;;4.25;2.80;;;11.30;79.80;;;;;;5065484;28;20112;-76
2023/10/04 04:23:46;;;;;;;4.45;3.17;;;11.30;79.80;;;;;;5064076;28;20057;-85
2023/10/04 04:26:12;;;;;;;4.40;2.75;;;11.20;79.80;;;;;;5059060;28;20023;-82
2023/10/04 04:28:37;;;;;;;5.57;2.60;;;11.30;79.90;;;;;;5059302;28;20036;-82
2023/10/04 04:31:14;;;;;;;5.50;3.00;;;11.30;79.90;;;;;;5058454;28;20037;-84
2023/10/04 04:33:41;;;;;;;6.32;2.92;;;11.20;80.10;;;;;;5058457;28;20017;-78
2023/10/04 04:36:16;;;;;;;4.38;2.47;;;11.30;80.20;;;;;;5058124;28;20100;-84
2023/10/04 04:38:41;;;;;;;6.45;3.38;;;11.30;80.30;;;;;;5058149;28;20024;-87
2023/10/04 04:41:12;;;;;;;4.82;3.15;;;11.30;80.30;;;;;;5058366;28;20452;-81
2023/10/04 04:43:39;;;;;;;4.60;2.55;;;11.30;80.30;;;;;;5058208;28;20075;-87
2023/10/04 04:46:12;;;;;;;5.55;2.47;;;11.40;80.20;;;;;;5058504;28;20028;-85
2023/10/04 04:48:39;;;;;;;5.35;3.05;;;11.30;79.90;;;;;;5061708;28;20049;-84
2023/10/04 04:51:12;;;;;;;5.30;3.00;;;11.30;80.00;;;;;;5042408;28;20183;-82
2023/10/04 04:53:45;;;;;;;6.97;3.50;;;11.30;80.20;;;;;;5062391;28;20036;-83
2023/10/04 04:56:14;;;;;;;6.45;2.60;;;11.20;80.30;;;;;;5063019;28;20024;-84
2023/10/04 04:58:41;;;;;;;4.55;2.70;;;11.20;80.50;;;;;;5060210;28;20022;-85
2023/10/04 05:01:13;;;;;;;7.65;3.53;;;11.10;80.70;;;;;;5060017;28;20021;-85
2023/10/04 05:03:45;;;;;;;5.72;3.28;;;11.00;80.90;;;;;;5060257;28;20088;-86
2023/10/04 05:06:20;;;;;;;5.82;3.22;;;11.00;81.20;;;;;;5060597;28;20017;-83
2023/10/04 05:08:46;;;;;;;5.90;3.63;;;11.00;81.40;;;;;;5064216;28;20065;-81
2023/10/04 05:11:12;;;;;;;6.43;2.95;;;11.00;81.20;;;;;;5060076;28;20040;-83
2023/10/04 05:13:39;;;;;;;5.72;2.63;;;11.00;81.30;;;;;;5059052;28;20384;-81
2023/10/04 05:16:04;;;;;;;4.75;2.88;;;11.00;81.40;;;;;;5062323;28;20024;-81
2023/10/04 05:18:31;;;;;;;5.35;3.17;;;11.00;81.20;;;;;;5067944;28;20029;-82
2023/10/04 05:20:57;;;;;;;5.53;2.88;;;11.00;81.20;;;;;;5064277;28;20060;-84
2023/10/04 05:23:24;;;;;;;5.35;2.83;;;11.00;81.30;;;;;;5057467;28;20137;-84
2023/10/04 05:25:52;;;;;;;5.35;3.08;;;11.00;81.20;;;;;;5058523;28;20025;-82
2023/10/04 05:28:18;;;;;;;5.32;3.30;;;11.10;81.30;;;;;;5056967;28;20109;-84
2023/10/04 05:30:46;;;;;;;7.40;3.40;;;11.00;81.40;;;;;;5057894;28;20041;-85
2023/10/04 05:33:13;;;;;;;5.93;3.50;;;11.00;81.00;;;;;;5060439;28;20021;-85
2023/10/04 05:35:42;;;;;;;13.57;3.63;;;11.00;80.80;;;;;;5059810;28;20057;-82
2023/10/04 05:38:08;;;;;;;8.95;3.10;;;11.00;81.00;;;;;;5063230;28;20036;-80
2023/10/04 05:40:35;;;;;;;7.05;3.53;;;11.00;81.00;;;;;;5062515;28;20025;-85
2023/10/04 05:43:03;;;;;;;5.93;3.40;;;11.10;81.00;;;;;;5060052;28;20078;-84
2023/10/04 05:45:28;;;;;;;7.38;3.88;;;11.10;80.90;;;;;;5058857;28;20025;-82
2023/10/04 05:47:55;;;;;;;6.97;3.47;;;11.20;80.50;;;;;;5061997;28;20052;-76
2023/10/04 05:50:21;;;;;;;6.30;3.35;;;11.20;80.40;;;;;;5068890;28;20437;-72
2023/10/04 05:52:48;;;;;;;5.55;2.92;;;11.30;80.20;;;;;;5068071;28;20028;-82
2023/10/04 05:55:16;;;;;;;6.65;3.58;;;11.30;80.00;;;;;;5061607;28;20021;-80
2023/10/04 05:57:50;;;;;;;5.85;3.05;;;11.40;79.70;;;;;;5061594;28;20021;-74
2023/10/04 06:00:37;;;;;;;5.10;2.95;;;11.40;79.70;;;;;;5055641;28;20057;-76
2023/10/04 06:03:07;;;;;;;10.95;3.10;;;11.50;79.70;;;;;;5057427;28;20021;-79
2023/10/04 06:05:37;;;;;;;13.27;4.68;;;11.50;79.50;;;;;;5049735;28;20029;-80
2023/10/04 06:08:11;;;;;;;14.98;4.47;;;11.40;80.70;;;;;;5053304;28;20032;-72
2023/10/04 06:10:36;;;;;;;6.80;3.88;;;11.80;87.10;;;;;;5028763;28;20441;-68
2023/10/04 06:13:02;;;;;;;5.97;2.67;;;12.00;81.90;;;;;;5036452;28;20025;-69
2023/10/04 06:15:30;;;;;;;9.43;4.38;;;12.10;79.90;;;;;;5054360;28;20040;-70
2023/10/04 06:17:57;;;;;;;10.05;3.92;;;12.20;78.10;;;;;;5054108;28;20025;-71
2023/10/04 06:20:33;;;;;;;11.20;4.35;;;12.30;77.70;;;;;;5054031;28;20370;-70
2023/10/04 06:23:07;;;;;;;8.65;3.60;;;12.30;77.00;;;;;;5053138;28;20024;-70
2023/10/04 06:25:35;;;;;;;6.88;3.22;;;12.30;76.40;;;;;;5054594;28;20107;-70
2023/10/04 06:28:05;;;;;;;8.80;3.72;;;12.30;77.00;;;;;;5054343;28;20031;-70
2023/10/04 06:30:32;;;;;;;6.75;3.45;;;12.30;76.10;;;;;;5053986;28;20048;-72
2023/10/04 06:33:02;;;;;;;8.18;3.50;;;12.30;76.30;;;;;;5053983;28;20623;-72
2023/10/04 06:35:29;;;;;;;6.85;3.50;;;12.30;76.60;;;;;;5054207;28;20021;-72
2023/10/04 06:37:56;;;;;;;8.65;3.45;;;12.40;75.70;;;;;;5053708;28;20466;-80
2023/10/04 06:40:23;;;;;;;7.93;2.80;;;12.40;75.90;;;;;;5053524;28;20033;-72
2023/10/04 06:42:51;;;;;;;6.15;3.30;;;12.60;75.40;;;;;;5053706;28;20032;-84
2023/10/04 06:45:18;;;;;;;8.23;3.60;;;12.80;74.30;;;;;;5055650;28;20025;-82
2023/10/04 06:47:45;;;;;;;5.70;3.63;;;12.80;74.00;;;;;;5055584;28;20074;-81
2023/10/04 06:50:15;;;;;;;6.32;3.47;;;12.90;73.90;;;;;;5054538;28;20033;-81
2023/10/04 06:52:47;;;;;;;4.78;3.15;;;12.90;73.60;;;;;;5055227;28;20028;-80
2023/10/04 06:55:13;;;;;;;6.15;3.22;;;12.80;73.40;;;;;;5054740;28;20032;-78
2023/10/04 06:57:42;;;;;;;12.05;3.67;;;12.70;73.60;;;;;;5036620;28;20025;-77
2023/10/04 07:00:19;;;;;;;12.43;4.10;;;12.70;73.90;;;;;;5036695;28;20428;-77
2023/10/04 07:02:53;;;;;;;8.75;4.13;;;12.60;74.10;;;;;;5054552;28;20032;-85
2023/10/04 07:05:26;;;;;;;7.70;3.75;;;12.60;74.60;;;;;;5037133;28;20025;-83
2023/10/04 07:07:54;;;;;;;5.40;3.42;;;12.60;74.80;;;;;;5055028;28;20048;-75
2023/10/04 07:10:21;;;;;;;5.70;3.58;;;12.50;75.10;;;;;;5054447;28;20056;-79
2023/10/04 07:12:49;;;;;;;7.18;3.72;;;12.60;75.00;;;;;;5053341;28;20028;-73
2023/10/04 07:15:15;;;;;;;8.30;3.88;;;12.50;75.20;;;;;;5053353;28;20029;-74
2023/10/04 07:17:41;;;;;;;8.40;3.78;;;12.60;75.10;;;;;;5053252;28;20040;-73
2023/10/04 07:20:14;;;;;;;8.68;5.00;;;12.60;75.20;;;;;;5053264;28;20083;-81
2023/10/04 07:22:40;;;;;;;6.20;3.53;;;12.70;75.20;;;;;;5053261;28;20028;-75
2023/10/04 07:25:07;;;;;;;4.88;3.15;;;12.70;75.00;;;;;;5053152;28;20061;-76
2023/10/04 07:27:33;;;;;;;6.07;3.17;;;12.90;74.40;;;;;;5053236;28;20096;-75
2023/10/04 07:29:58;;;;;;;8.88;3.85;;;13.00;74.00;;;;;;5053020;28;20060;-74
2023/10/04 07:32:25;;;;;;;7.30;3.88;;;13.10;73.90;;;;;;5053160;28;20490;-73
2023/10/04 07:34:50;;;;;;;6.82;3.50;;;13.20;72.90;;;;;;5052844;28;20111;-77
2023/10/04 07:37:16;;;;;;;8.63;3.63;;;13.30;72.70;;;;;;5053398;28;20055;-74
2023/10/04 07:39:42;;;;;;;6.30;3.80;;;13.40;72.30;;;;;;5053261;28;20473;-75
2023/10/04 07:42:07;;;;;;;5.55;3.25;;;13.50;72.00;;;;;;5053230;28;20032;-79
2023/10/04 07:44:33;;;;;;;5.15;3.17;;;13.60;71.60;;;;;;5035063;28;20021;-73
2023/10/04 07:46:59;;;;;;;11.15;2.85;;;13.70;71.40;;;;;;5053133;28;20113;-75
2023/10/04 07:49:26;;;;;;;6.55;2.90;;;13.80;70.60;;;;;;5054987;28;20029;-74
2023/10/04 07:51:51;;;;;;;7.55;3.08;;;13.90;70.90;;;;;;5052202;28;20029;-74
2023/10/04 07:54:18;;;;;;;7.10;3.53;;;14.00;70.50;;;;;;5053885;28;20377;-74
2023/10/04 07:56:44;;;;;;;5.30;2.63;;;14.10;71.30;;;;;;5052886;28;20029;-72
2023/10/04 07:59:10;;;;;;;9.90;3.30;;;14.30;70.10;;;;;;5053707;28;20036;-74
2023/10/04 08:01:39;;;;;;;9.20;3.10;;;14.40;69.70;;;;;;5043008;28;20025;-85
2023/10/04 08:04:07;;;;;;;5.43;2.55;;;14.50;69.20;;;;;;5062007;28;20091;-74
2023/10/04 08:06:35;;;;;;;5.00;2.95;;;14.50;69.00;;;;;;5057817;28;20036;-74
2023/10/04 08:09:00;;;;;;;7.25;2.67;;;14.60;68.80;;;;;;5056197;28;20057;-75
2023/10/04 08:11:27;;;;;;;4.13;2.50;;;14.60;66.20;;;;;;5053709;28;20573;-76
2023/10/04 08:13:53;;;;;;;7.95;2.60;;;14.70;66.90;;;;;;5056535;28;20462;-78
2023/10/04 08:16:18;;;;;;;7.18;2.67;;;14.90;67.20;;;;;;5053225;28;20087;-77
2023/10/04 08:18:44;;;;;;;5.65;2.53;;;15.10;65.60;;;;;;5052753;28;20377;-75
2023/10/04 08:21:09;;;;;;;7.30;2.55;;;15.30;64.20;;;;;;5052809;28;20033;-78
2023/10/04 08:23:35;;;;;;;5.00;2.47;;;15.50;63.70;;;;;;5052552;28;20095;-75
2023/10/04 08:26:00;;;;;;;7.00;2.78;;;15.50;62.80;;;;;;5052687;28;20085;-78
2023/10/04 08:28:26;;;;;;;5.10;2.47;;;15.50;61.30;;;;;;5052777;28;20112;-77
2023/10/04 08:30:51;;;;;;;5.07;2.50;;;15.60;60.30;;;;;;5051083;28;20033;-79
2023/10/04 08:33:29;;;;;;;5.30;2.58;;;15.70;60.50;;;;;;5052462;28;20037;-79
2023/10/04 08:35:57;;;;;;;5.22;2.40;;;15.80;60.30;;;;;;5052837;28;20100;-74
2023/10/04 08:38:25;;;;;;;8.00;2.35;;;15.70;60.30;;;;;;5052239;28;20102;-78
2023/10/04 08:40:50;;;;;;;5.53;2.60;;;15.80;60.80;;;;;;5052282;28;20025;-78
2023/10/04 08:43:17;;;;;;;8.60;2.38;;;15.70;59.80;;;;;;5053087;28;20481;-79
2023/10/04 08:45:43;;;;;;;5.45;2.30;;;15.70;60.90;;;;;;5052854;28;20021;-83
2023/10/04 08:48:09;;;;;;;6.25;2.45;;;15.90;59.80;;;;;;5052602;28;20044;-86
2023/10/04 08:50:51;;;;;;;7.40;2.40;;;16.10;58.90;;;;;;5052764;28;20029;-85
2023/10/04 08:53:28;;;;;;;7.32;2.40;;;16.40;58.50;;;;;;5051874;28;20025;-84
2023/10/04 08:56:08;;;;;;;7.78;2.80;;;16.70;58.90;;;;;;5053300;28;20021;-85
2023/10/04 08:58:36;;;;;;;5.63;2.60;;;17.00;57.40;;;;;;5053040;28;20096;-85
2023/10/04 09:01:04;;;;;;;6.85;2.80;;;17.20;55.00;;;;;;5053431;28;20044;-85
2023/10/04 09:03:33;;;;;;;4.72;2.63;;;17.20;54.70;;;;;;5055112;28;20029;-86
2023/10/04 09:05:59;;;;;;;5.10;2.88;;;17.40;54.70;;;;;;5038635;28;20473;-85
2023/10/04 09:08:25;;;;;;;4.80;2.30;;;17.30;53.00;;;;;;5056198;28;20025;-85
2023/10/04 09:10:53;;;;;;;6.38;2.70;;;17.30;54.80;;;;;;5056285;28;20520;-85
2023/10/04 09:13:19;;;;;;;5.45;2.17;;;17.20;54.70;;;;;;5056313;28;20525;-86
2023/10/04 09:15:44;;;;;;;5.30;2.83;;;17.30;54.00;;;;;;5056189;28;20064;-83
2023/10/04 09:18:10;;;;;;;5.35;2.58;;;17.50;53.50;;;;;;5056039;28;20021;-85
2023/10/04 09:20:36;;;;;;;5.72;2.70;;;17.30;54.20;;;;;;5056009;28;20135;-74
2023/10/04 09:23:15;;;;;;;4.78;2.35;;;17.40;54.10;;;;;;5055883;28;20024;-84
2023/10/04 09:25:41;;;;;;;7.35;3.28;;;17.80;54.10;;;;;;5056217;28;20053;-80
2023/10/04 09:28:09;;;;;;;6.35;2.90;;;18.10;53.10;;;;;;5056822;28;20037;-78
2023/10/04 09:30:36;;;;;;;6.90;3.15;;;18.40;52.60;;;;;;5055435;28;20033;-77
2023/10/04 09:33:20;;;;;;;6.10;2.60;;;18.60;52.40;;;;;;5037931;28;20437;-80
2023/10/04 09:35:48;;;;;;;4.80;2.63;;;18.70;50.50;;;;;;5055591;28;20386;-77
2023/10/04 09:38:17;;;;;;;6.25;2.53;;;19.00;49.40;;;;;;5055593;28;20032;-74
2023/10/04 09:40:55;;;;;;;6.20;2.63;;;19.00;48.60;;;;;;5055769;28;20017;-80
2023/10/04 09:43:37;;;;;;;5.25;2.40;;;18.60;49.40;;;;;;5055126;28;20449;-79
2023/10/04 09:46:09;;;;;;;5.05;2.47;;;18.60;50.60;;;;;;5055293;28;20091;-77
2023/10/04 09:48:37;;;;;;;7.82;2.97;;;18.60;49.40;;;;;;5055329;28;20600;-79
2023/10/04 09:51:05;;;;;;;5.70;2.80;;;18.70;50.50;;;;;;5037394;28;20037;-80
2023/10/04 09:53:31;;;;;;;5.38;2.38;;;18.80;49.40;;;;;;5055348;28;20078;-75
2023/10/04 09:56:02;;;;;;;6.97;2.78;;;19.00;48.70;;;;;;5067365;28;20068;-73
2023/10/04 09:58:30;;;;;;;5.80;2.65;;;19.30;47.50;;;;;;5070670;28;20036;-75
2023/10/04 10:01:01;;;;;;;3.90;2.28;;;19.60;46.70;;;;;;5075453;28;20017;-82
2023/10/04 10:03:32;;;;;;;5.40;2.22;;;20.10;46.40;;;;;;5057406;28;20025;-85
2023/10/04 10:05:59;;;;;;;7.63;2.58;;;20.60;45.60;;;;;;5055820;28;20083;-83
2023/10/04 10:08:30;;;;;;;5.65;2.45;;;20.70;44.80;;;;;;5055242;28;20025;-82
2023/10/04 10:10:56;;;;;;;5.22;2.45;;;19.90;46.10;;;;;;5055458;28;20036;-84
2023/10/04 10:13:24;;;;;;;5.35;2.60;;;19.60;46.70;;;;;;5055562;28;20029;-84
2023/10/04 10:15:53;;;;;;;4.55;2.70;;;19.30;47.40;;;;;;5055447;28;20063;-85
2023/10/04 10:18:20;;;;;;;6.53;2.90;;;19.00;48.40;;;;;;5055031;28;20095;-83
2023/10/04 10:20:46;;;;;;;4.75;2.88;;;19.00;47.00;;;;;;5055177;28;20033;-81
2023/10/04 10:23:13;;;;;;;3.72;2.45;;;18.70;47.10;;;;;;5055003;28;20055;-85
2023/10/04 10:25:40;;;;;;;5.20;2.83;;;18.90;47.20;;;;;;5055276;28;20028;-81
2023/10/04 10:28:21;;;;;;;5.20;2.70;;;19.40;46.90;;;;;;5055087;28;20021;-83
2023/10/04 10:30:47;;;;;;;3.72;2.22;;;20.00;46.10;;;;;;5037831;28;20052;-85
2023/10/04 10:33:12;;;;;;;4.60;2.70;;;20.40;44.00;;;;;;5055044;28;20462;-86
2023/10/04 10:35:57;;;;;;;4.72;2.30;;;20.50;42.00;;;;;;5055242;28;20020;-86
2023/10/04 10:38:28;;;;;;;4.93;2.08;;;20.70;43.20;;;;;;5055245;28;20060;-82
2023/10/04 10:40:54;;;;;;;5.40;2.47;;;20.70;44.20;;;;;;5055612;28;20032;-85
2023/10/04 10:43:19;;;;;;;4.10;2.50;;;20.80;43.80;;;;;;5057339;28;20029;-85
2023/10/04 10:45:46;;;;;;;9.50;2.72;;;20.20;44.10;;;;;;5058277;28;20109;-85
2023/10/04 10:48:12;;;;;;;4.93;2.38;;;20.10;44.60;;;;;;5055980;28;20044;-74
2023/10/04 10:50:41;;;;;;;4.35;2.20;;;20.10;44.70;;;;;;5053466;28;20029;-73
2023/10/04 10:53:10;;;;;;;5.80;2.55;;;20.10;45.50;;;;;;5053101;28;20025;-74
2023/10/04 10:55:36;;;;;;;7.30;3.15;;;20.50;45.50;;;;;;5053979;28;20394;-75
2023/10/04 10:58:02;;;;;;;6.03;2.85;;;20.60;43.00;;;;;;5053194;28;20021;-80
2023/10/04 11:00:34;;;;;;;4.43;2.33;;;20.60;42.90;;;;;;5053918;28;20092;-82
2023/10/04 11:03:01;;;;;;;4.05;2.20;;;20.30;44.00;;;;;;5053203;28;20100;-80
2023/10/04 11:05:27;;;;;;;4.50;2.53;;;19.80;44.60;;;;;;5053775;28;20105;-82
2023/10/04 11:07:54;;;;;;;6.40;2.42;;;19.30;46.00;;;;;;5054064;28;20017;-85
2023/10/04 11:10:23;;;;;;;3.95;2.60;;;19.30;46.60;;;;;;5053277;28;20497;-83
2023/10/04 11:12:50;;;;;;;5.93;2.60;;;19.80;46.40;;;;;;5053144;28;20382;-79
2023/10/04 11:15:20;;;;;;;5.18;2.67;;;20.10;45.50;;;;;;5053360;28;20040;-78
2023/10/04 11:17:46;;;;;;;4.82;2.70;;;20.70;44.50;;;;;;5053479;28;20021;-78
2023/10/04 11:20:13;;;;;;;7.28;3.45;;;21.10;41.90;;;;;;5053145;28;20056;-80
2023/10/04 11:22:41;;;;;;;5.38;2.42;;;21.00;40.10;;;;;;5053009;28;20021;-74
2023/10/04 11:25:08;;;;;;;4.85;2.80;;;20.80;39.60;;;;;;5053347;28;20025;-76
2023/10/04 11:27:41;;;;;;;4.43;2.40;;;20.70;42.50;;;;;;5034449;28;20107;-71
2023/10/04 11:30:13;;;;;;;5.07;2.60;;;21.10;41.20;;;;;;5054051;28;20033;-76
2023/10/04 11:32:46;;;;;;;5.20;2.80;;;21.30;41.00;;;;;;5035128;28;20429;-79
2023/10/04 11:35:17;;;;;;;7.28;4.28;;;21.50;39.90;;;;;;5053175;28;20029;-79
2023/10/04 11:37:43;;;;;;;4.78;3.22;;;21.50;39.20;;;;;;5055165;28;20088;-82
2023/10/04 11:40:11;;;;;;;4.50;2.70;;;21.90;38.50;;;;;;5051710;28;20378;-80
2023/10/04 11:42:37;;;;;;;5.60;2.67;;;21.90;37.90;;;;;;5052820;28;20045;-81
2023/10/04 11:45:26;;;;;;;5.32;2.72;;;21.70;37.80;;;;;;5052880;28;20492;-82
2023/10/04 11:47:59;;;;;;;4.97;2.70;;;21.10;38.90;;;;;;5052504;28;20045;-81
2023/10/04 11:50:26;;;;;;;4.07;2.20;;;20.60;40.30;;;;;;5052510;28;20486;-81
2023/10/04 11:52:56;;;;;;;6.82;2.60;;;20.30;41.90;;;;;;5053061;28;20095;-82
2023/10/04 11:55:27;;;;;;;3.83;2.20;;;20.10;41.40;;;;;;5052670;28;20021;-81
2023/10/04 11:58:04;;;;;;;3.67;1.83;;;20.20;41.60;;;;;;5055181;28;20025;-81
2023/10/04 12:00:30;;;;;;;3.70;2.08;;;20.40;42.30;;;;;;5049685;28;20028;-81
2023/10/04 12:02:55;;;;;;;4.28;2.65;;;21.00;40.10;;;;;;5052057;28;20047;-72
2023/10/04 12:05:21;;;;;;;3.67;2.40;;;21.20;38.10;;;;;;5052858;28;20397;-78
2023/10/04 12:07:47;;;;;;;4.03;2.38;;;21.00;37.50;;;;;;5052360;28;20029;-80
2023/10/04 12:10:13;;;;;;;3.97;2.45;;;20.30;39.00;;;;;;5052215;28;20033;-81
2023/10/04 12:12:40;;;;;;;4.13;2.45;;;20.40;39.60;;;;;;5051723;28;20100;-80
2023/10/04 12:15:07;;;;;;;5.13;2.30;;;21.10;39.20;;;;;;5053534;28;20032;-79
2023/10/04 12:17:36;;;;;;;4.03;1.88;;;21.40;36.90;;;;;;5051403;28;20418;-78
2023/10/04 12:20:07;;;;;;;4.50;2.47;;;21.90;35.90;;;;;;5051293;28;20036;-80
2023/10/04 12:22:32;;;;;;;4.80;2.20;;;22.60;34.40;;;;;;5051412;28;20018;-82
2023/10/04 12:25:01;;;;;;;6.32;2.33;;;22.50;33.20;;;;;;5051299;28;20387;-74
2023/10/04 12:27:27;;;;;;;3.30;2.15;;;22.50;33.60;;;;;;5052035;28;20487;-81
2023/10/04 12:29:52;;;;;;;4.60;2.35;;;22.10;31.20;;;;;;5052702;28;20167;-81
2023/10/04 12:32:19;;;;;;;4.32;1.80;;;22.00;33.90;;;;;;5052797;28;20104;-81
2023/10/04 12:34:45;;;;;;;3.45;1.92;;;22.50;34.00;;;;;;5052360;28;20377;-79
2023/10/04 12:37:12;;;;;;;4.25;2.72;;;23.10;31.80;;;;;;5052140;28;20529;-81
2023/10/04 12:39:38;;;;;;;3.72;2.22;;;23.40;32.10;;;;;;5055832;28;20068;-72
2023/10/04 12:42:04;;;;;;;3.65;2.17;;;23.50;32.30;;;;;;5055651;28;20079;-80
2023/10/04 12:44:29;;;;;;;3.47;2.10;;;23.60;31.50;;;;;;5055197;28;20033;-79
2023/10/04 12:46:58;;;;;;;2.88;1.95;;;23.80;30.60;;;;;;5055146;28;20033;-81
2023/10/04 12:49:24;;;;;;;4.60;2.25;;;23.80;29.40;;;;;;5055279;28;20016;-78